sensor_id;sensor_type;location;lat;lon;timestamp;P1;durP1;ratioP1;P2;durP2;ratioP2
16890;SDS011;8562;52.246;20.966;2023-09-30T00:01:08;2.23;;;1.93;;
16890;SDS011;8562;52.246;20.966;2023-09-30T00:03:33;4.30;;;2.73;;
16890;SDS011;8562;52.246;20.966;2023-09-30T00:05:59;2.30;;;2.10;;
16890;SDS011;8562;52.246;20.966;2023-09-30T00:08:24;1.70;;;1.60;;
16890;SDS011;8562;52.246;20.966;2023-09-30T00:10:50;2.17;;;1.83;;
16890;SDS011;8562;52.246;20.966;2023-09-30T00:13:15;2.60;;;2.40;;
16890;SDS011;8562;52.246;20.966;2023-09-30T00:15:41;2.67;;;2.47;;
16890;SDS011;8562;52.246;20.966;2023-09-30T00:18:06;2.27;;;2.17;;
16890;SDS011;8562;52.246;20.966;2023-09-30T00:20:32;3.03;;;1.70;;
16890;SDS011;8562;52.246;20.966;2023-09-30T00:22:57;4.00;;;2.33;;
16890;SDS011;8562;52.246;20.966;2023-09-30T00:25:23;1.57;;;1.40;;
16890;SDS011;8562;52.246;20.966;2023-09-30T00:27:48;1.97;;;1.67;;
16890;SDS011;8562;52.246;20.966;2023-09-30T00:30:14;2.00;;;1.17;;
16890;SDS011;8562;52.246;20.966;2023-09-30T00:32:39;2.87;;;1.43;;
16890;SDS011;8562;52.246;20.966;2023-09-30T00:35:05;2.83;;;2.23;;
16890;SDS011;8562;52.246;20.966;2023-09-30T00:37:30;3.47;;;2.47;;
16890;SDS011;8562;52.246;20.966;2023-09-30T00:39:55;3.40;;;2.07;;
16890;SDS011;8562;52.246;20.966;2023-09-30T00:42:21;3.70;;;2.07;;
16890;SDS011;8562;52.246;20.966;2023-09-30T00:44:47;2.40;;;1.67;;
16890;SDS011;8562;52.246;20.966;2023-09-30T00:47:13;4.83;;;2.07;;
16890;SDS011;8562;52.246;20.966;2023-09-30T00:49:40;3.13;;;2.73;;
16890;SDS011;8562;52.246;20.966;2023-09-30T00:52:07;5.60;;;2.97;;
16890;SDS011;8562;52.246;20.966;2023-09-30T00:54:32;2.43;;;1.87;;
16890;SDS011;8562;52.246;20.966;2023-09-30T00:56:57;3.70;;;1.90;;
16890;SDS011;8562;52.246;20.966;2023-09-30T00:59:25;3.80;;;2.03;;
16890;SDS011;8562;52.246;20.966;2023-09-30T01:01:51;3.43;;;2.90;;
16890;SDS011;8562;52.246;20.966;2023-09-30T01:04:18;3.10;;;1.87;;
16890;SDS011;8562;52.246;20.966;2023-09-30T01:06:45;2.13;;;2.03;;
16890;SDS011;8562;52.246;20.966;2023-09-30T01:09:12;3.40;;;2.30;;
16890;SDS011;8562;52.246;20.966;2023-09-30T01:11:39;3.20;;;1.90;;
16890;SDS011;8562;52.246;20.966;2023-09-30T01:14:05;3.63;;;2.63;;
16890;SDS011;8562;52.246;20.966;2023-09-30T01:16:30;2.53;;;2.07;;
16890;SDS011;8562;52.246;20.966;2023-09-30T01:18:55;2.07;;;1.87;;
16890;SDS011;8562;52.246;20.966;2023-09-30T01:21:21;2.50;;;2.03;;
16890;SDS011;8562;52.246;20.966;2023-09-30T01:23:47;2.43;;;1.80;;
16890;SDS011;8562;52.246;20.966;2023-09-30T01:26:13;3.50;;;2.47;;
16890;SDS011;8562;52.246;20.966;2023-09-30T01:28:39;2.40;;;2.20;;
16890;SDS011;8562;52.246;20.966;2023-09-30T01:31:04;2.13;;;1.53;;
16890;SDS011;8562;52.246;20.966;2023-09-30T01:33:30;2.27;;;2.07;;
16890;SDS011;8562;52.246;20.966;2023-09-30T01:35:56;1.93;;;1.83;;
16890;SDS011;8562;52.246;20.966;2023-09-30T01:38:22;4.53;;;3.60;;
16890;SDS011;8562;52.246;20.966;2023-09-30T01:40:47;1.73;;;1.50;;
16890;SDS011;8562;52.246;20.966;2023-09-30T01:43:13;3.33;;;2.57;;
16890;SDS011;8562;52.246;20.966;2023-09-30T01:45:41;2.17;;;1.53;;
16890;SDS011;8562;52.246;20.966;2023-09-30T01:48:07;4.13;;;2.13;;
16890;SDS011;8562;52.246;20.966;2023-09-30T01:50:36;4.80;;;2.47;;
16890;SDS011;8562;52.246;20.966;2023-09-30T01:53:02;2.17;;;1.97;;
16890;SDS011;8562;52.246;20.966;2023-09-30T01:55:27;2.43;;;2.03;;
16890;SDS011;8562;52.246;20.966;2023-09-30T01:57:52;2.27;;;1.83;;
16890;SDS011;8562;52.246;20.966;2023-09-30T02:00:18;3.03;;;2.33;;
16890;SDS011;8562;52.246;20.966;2023-09-30T02:02:43;3.10;;;2.47;;
16890;SDS011;8562;52.246;20.966;2023-09-30T02:05:09;2.53;;;2.30;;
16890;SDS011;8562;52.246;20.966;2023-09-30T02:07:34;2.13;;;1.97;;
16890;SDS011;8562;52.246;20.966;2023-09-30T02:10:00;2.17;;;1.53;;
16890;SDS011;8562;52.246;20.966;2023-09-30T02:12:29;1.63;;;1.43;;
16890;SDS011;8562;52.246;20.966;2023-09-30T02:14:54;2.57;;;2.10;;
16890;SDS011;8562;52.246;20.966;2023-09-30T02:17:19;2.87;;;2.00;;
16890;SDS011;8562;52.246;20.966;2023-09-30T02:19:45;4.90;;;2.63;;
16890;SDS011;8562;52.246;20.966;2023-09-30T02:22:11;4.00;;;3.60;;
16890;SDS011;8562;52.246;20.966;2023-09-30T02:24:37;2.30;;;1.70;;
16890;SDS011;8562;52.246;20.966;2023-09-30T02:27:02;2.43;;;1.90;;
16890;SDS011;8562;52.246;20.966;2023-09-30T02:29:27;1.90;;;1.80;;
16890;SDS011;8562;52.246;20.966;2023-09-30T02:31:53;2.00;;;1.90;;
16890;SDS011;8562;52.246;20.966;2023-09-30T02:34:19;3.77;;;2.47;;
16890;SDS011;8562;52.246;20.966;2023-09-30T02:36:45;2.50;;;2.30;;
16890;SDS011;8562;52.246;20.966;2023-09-30T02:39:10;2.83;;;1.73;;
16890;SDS011;8562;52.246;20.966;2023-09-30T02:41:36;4.00;;;2.57;;
16890;SDS011;8562;52.246;20.966;2023-09-30T02:44:03;2.50;;;1.73;;
16890;SDS011;8562;52.246;20.966;2023-09-30T02:46:28;2.33;;;1.53;;
16890;SDS011;8562;52.246;20.966;2023-09-30T02:48:53;4.80;;;1.97;;
16890;SDS011;8562;52.246;20.966;2023-09-30T02:51:19;2.23;;;1.57;;
16890;SDS011;8562;52.246;20.966;2023-09-30T02:53:44;2.53;;;2.23;;
16890;SDS011;8562;52.246;20.966;2023-09-30T02:56:09;2.03;;;1.90;;
16890;SDS011;8562;52.246;20.966;2023-09-30T02:58:36;1.80;;;1.70;;
16890;SDS011;8562;52.246;20.966;2023-09-30T03:01:01;2.37;;;2.17;;
16890;SDS011;8562;52.246;20.966;2023-09-30T03:03:26;2.17;;;1.93;;
16890;SDS011;8562;52.246;20.966;2023-09-30T03:05:52;4.87;;;1.90;;
16890;SDS011;8562;52.246;20.966;2023-09-30T03:08:17;3.50;;;1.80;;
16890;SDS011;8562;52.246;20.966;2023-09-30T03:10:43;3.17;;;2.53;;
16890;SDS011;8562;52.246;20.966;2023-09-30T03:13:08;2.97;;;2.60;;
16890;SDS011;8562;52.246;20.966;2023-09-30T03:15:37;3.27;;;2.53;;
16890;SDS011;8562;52.246;20.966;2023-09-30T03:18:04;4.43;;;2.20;;
16890;SDS011;8562;52.246;20.966;2023-09-30T03:20:29;2.87;;;1.40;;
16890;SDS011;8562;52.246;20.966;2023-09-30T03:22:56;1.60;;;1.50;;
16890;SDS011;8562;52.246;20.966;2023-09-30T03:25:21;2.90;;;1.90;;
16890;SDS011;8562;52.246;20.966;2023-09-30T03:27:47;5.73;;;2.33;;
16890;SDS011;8562;52.246;20.966;2023-09-30T03:30:13;2.13;;;1.93;;
16890;SDS011;8562;52.246;20.966;2023-09-30T03:32:39;2.03;;;1.83;;
16890;SDS011;8562;52.246;20.966;2023-09-30T03:35:11;1.80;;;1.70;;
16890;SDS011;8562;52.246;20.966;2023-09-30T03:37:40;2.57;;;2.10;;
16890;SDS011;8562;52.246;20.966;2023-09-30T03:40:06;3.97;;;2.47;;
16890;SDS011;8562;52.246;20.966;2023-09-30T03:42:42;2.17;;;1.97;;
16890;SDS011;8562;52.246;20.966;2023-09-30T03:45:08;1.70;;;1.60;;
16890;SDS011;8562;52.246;20.966;2023-09-30T03:47:34;2.90;;;2.57;;
16890;SDS011;8562;52.246;20.966;2023-09-30T03:49:59;1.97;;;1.57;;
16890;SDS011;8562;52.246;20.966;2023-09-30T03:52:25;2.03;;;1.80;;
16890;SDS011;8562;52.246;20.966;2023-09-30T03:54:51;2.30;;;2.10;;
16890;SDS011;8562;52.246;20.966;2023-09-30T03:57:17;3.40;;;2.07;;
16890;SDS011;8562;52.246;20.966;2023-09-30T03:59:43;3.43;;;3.10;;
16890;SDS011;8562;52.246;20.966;2023-09-30T04:02:11;3.13;;;1.80;;
16890;SDS011;8562;52.246;20.966;2023-09-30T04:04:36;2.30;;;2.07;;
16890;SDS011;8562;52.246;20.966;2023-09-30T04:07:02;1.53;;;1.43;;
16890;SDS011;8562;52.246;20.966;2023-09-30T04:09:30;2.50;;;1.70;;
16890;SDS011;8562;52.246;20.966;2023-09-30T04:11:57;3.17;;;2.13;;
16890;SDS011;8562;52.246;20.966;2023-09-30T04:14:22;1.90;;;1.70;;
16890;SDS011;8562;52.246;20.966;2023-09-30T04:16:47;2.83;;;2.10;;
16890;SDS011;8562;52.246;20.966;2023-09-30T04:19:13;2.07;;;1.43;;
16890;SDS011;8562;52.246;20.966;2023-09-30T04:21:39;1.93;;;1.80;;
16890;SDS011;8562;52.246;20.966;2023-09-30T04:24:04;3.43;;;1.90;;
16890;SDS011;8562;52.246;20.966;2023-09-30T04:26:30;3.47;;;1.77;;
16890;SDS011;8562;52.246;20.966;2023-09-30T04:28:55;3.40;;;2.67;;
16890;SDS011;8562;52.246;20.966;2023-09-30T04:31:20;2.80;;;1.87;;
16890;SDS011;8562;52.246;20.966;2023-09-30T04:33:49;2.23;;;1.43;;
16890;SDS011;8562;52.246;20.966;2023-09-30T04:36:16;2.73;;;1.47;;
16890;SDS011;8562;52.246;20.966;2023-09-30T04:38:42;3.03;;;1.60;;
16890;SDS011;8562;52.246;20.966;2023-09-30T04:41:08;2.07;;;1.87;;
16890;SDS011;8562;52.246;20.966;2023-09-30T04:43:34;5.13;;;2.07;;
16890;SDS011;8562;52.246;20.966;2023-09-30T04:45:59;2.50;;;2.23;;
16890;SDS011;8562;52.246;20.966;2023-09-30T04:48:25;1.77;;;1.67;;
16890;SDS011;8562;52.246;20.966;2023-09-30T04:50:50;1.63;;;1.50;;
16890;SDS011;8562;52.246;20.966;2023-09-30T04:53:17;2.77;;;2.17;;
16890;SDS011;8562;52.246;20.966;2023-09-30T04:55:43;2.43;;;2.00;;
16890;SDS011;8562;52.246;20.966;2023-09-30T04:58:08;1.60;;;1.17;;
16890;SDS011;8562;52.246;20.966;2023-09-30T05:00:33;3.30;;;2.53;;
16890;SDS011;8562;52.246;20.966;2023-09-30T05:03:00;2.13;;;1.93;;
16890;SDS011;8562;52.246;20.966;2023-09-30T05:05:26;2.30;;;1.97;;
16890;SDS011;8562;52.246;20.966;2023-09-30T05:07:51;1.30;;;1.30;;
16890;SDS011;8562;52.246;20.966;2023-09-30T05:10:16;3.93;;;2.20;;
16890;SDS011;8562;52.246;20.966;2023-09-30T05:12:42;2.63;;;1.87;;
16890;SDS011;8562;52.246;20.966;2023-09-30T05:15:11;2.10;;;1.97;;
16890;SDS011;8562;52.246;20.966;2023-09-30T05:17:36;2.43;;;2.17;;
16890;SDS011;8562;52.246;20.966;2023-09-30T05:20:01;3.10;;;1.70;;
16890;SDS011;8562;52.246;20.966;2023-09-30T05:22:32;1.63;;;1.53;;
16890;SDS011;8562;52.246;20.966;2023-09-30T05:24:57;3.70;;;1.77;;
16890;SDS011;8562;52.246;20.966;2023-09-30T05:27:23;3.03;;;2.40;;
16890;SDS011;8562;52.246;20.966;2023-09-30T05:29:48;2.40;;;2.17;;
16890;SDS011;8562;52.246;20.966;2023-09-30T05:32:13;1.57;;;1.47;;
16890;SDS011;8562;52.246;20.966;2023-09-30T05:34:39;1.90;;;1.37;;
16890;SDS011;8562;52.246;20.966;2023-09-30T05:37:05;2.07;;;1.50;;
16890;SDS011;8562;52.246;20.966;2023-09-30T05:39:30;2.77;;;1.73;;
16890;SDS011;8562;52.246;20.966;2023-09-30T05:41:57;3.07;;;1.80;;
16890;SDS011;8562;52.246;20.966;2023-09-30T05:44:22;2.53;;;1.73;;
16890;SDS011;8562;52.246;20.966;2023-09-30T05:46:47;1.20;;;1.20;;
16890;SDS011;8562;52.246;20.966;2023-09-30T05:49:12;1.57;;;1.47;;
16890;SDS011;8562;52.246;20.966;2023-09-30T05:51:42;2.57;;;2.17;;
16890;SDS011;8562;52.246;20.966;2023-09-30T05:54:07;2.87;;;2.23;;
16890;SDS011;8562;52.246;20.966;2023-09-30T05:56:37;2.20;;;1.80;;
16890;SDS011;8562;52.246;20.966;2023-09-30T05:59:03;2.70;;;2.10;;
16890;SDS011;8562;52.246;20.966;2023-09-30T06:01:30;5.03;;;2.40;;
16890;SDS011;8562;52.246;20.966;2023-09-30T06:03:55;2.60;;;2.10;;
16890;SDS011;8562;52.246;20.966;2023-09-30T06:06:21;3.47;;;2.37;;
16890;SDS011;8562;52.246;20.966;2023-09-30T06:08:46;1.90;;;1.40;;
16890;SDS011;8562;52.246;20.966;2023-09-30T06:11:18;3.00;;;2.03;;
16890;SDS011;8562;52.246;20.966;2023-09-30T06:13:44;1.10;;;1.00;;
16890;SDS011;8562;52.246;20.966;2023-09-30T06:16:11;1.70;;;1.60;;
16890;SDS011;8562;52.246;20.966;2023-09-30T06:18:36;3.37;;;2.03;;
16890;SDS011;8562;52.246;20.966;2023-09-30T06:21:01;4.77;;;2.00;;
16890;SDS011;8562;52.246;20.966;2023-09-30T06:23:29;1.53;;;1.33;;
16890;SDS011;8562;52.246;20.966;2023-09-30T06:25:55;1.70;;;1.57;;
16890;SDS011;8562;52.246;20.966;2023-09-30T06:28:21;2.13;;;1.23;;
16890;SDS011;8562;52.246;20.966;2023-09-30T06:30:51;2.17;;;1.90;;
16890;SDS011;8562;52.246;20.966;2023-09-30T06:33:16;1.90;;;1.60;;
16890;SDS011;8562;52.246;20.966;2023-09-30T06:35:42;1.50;;;1.40;;
16890;SDS011;8562;52.246;20.966;2023-09-30T06:38:16;2.90;;;1.60;;
16890;SDS011;8562;52.246;20.966;2023-09-30T06:40:41;2.10;;;1.90;;
16890;SDS011;8562;52.246;20.966;2023-09-30T06:43:07;1.77;;;1.67;;
16890;SDS011;8562;52.246;20.966;2023-09-30T06:45:33;2.17;;;2.07;;
16890;SDS011;8562;52.246;20.966;2023-09-30T06:47:59;1.50;;;1.40;;
16890;SDS011;8562;52.246;20.966;2023-09-30T06:50:24;1.57;;;1.40;;
16890;SDS011;8562;52.246;20.966;2023-09-30T06:52:49;1.37;;;1.27;;
16890;SDS011;8562;52.246;20.966;2023-09-30T06:55:15;2.07;;;1.43;;
16890;SDS011;8562;52.246;20.966;2023-09-30T06:57:41;3.93;;;2.60;;
16890;SDS011;8562;52.246;20.966;2023-09-30T07:00:07;1.93;;;1.57;;
16890;SDS011;8562;52.246;20.966;2023-09-30T07:02:34;3.60;;;1.87;;
16890;SDS011;8562;52.246;20.966;2023-09-30T07:04:59;2.83;;;2.40;;
16890;SDS011;8562;52.246;20.966;2023-09-30T07:07:25;2.63;;;2.00;;
16890;SDS011;8562;52.246;20.966;2023-09-30T07:09:50;2.50;;;1.77;;
16890;SDS011;8562;52.246;20.966;2023-09-30T07:12:15;1.67;;;1.57;;
16890;SDS011;8562;52.246;20.966;2023-09-30T07:14:40;2.10;;;1.50;;
16890;SDS011;8562;52.246;20.966;2023-09-30T07:17:06;2.37;;;1.77;;
16890;SDS011;8562;52.246;20.966;2023-09-30T07:19:31;3.43;;;1.93;;
16890;SDS011;8562;52.246;20.966;2023-09-30T07:21:57;2.50;;;1.63;;
16890;SDS011;8562;52.246;20.966;2023-09-30T07:24:22;2.20;;;1.57;;
16890;SDS011;8562;52.246;20.966;2023-09-30T07:26:47;1.83;;;1.63;;
16890;SDS011;8562;52.246;20.966;2023-09-30T07:29:13;2.37;;;1.90;;
16890;SDS011;8562;52.246;20.966;2023-09-30T07:31:38;2.03;;;1.70;;
16890;SDS011;8562;52.246;20.966;2023-09-30T07:34:03;1.73;;;1.30;;
16890;SDS011;8562;52.246;20.966;2023-09-30T07:36:28;3.50;;;3.20;;
16890;SDS011;8562;52.246;20.966;2023-09-30T07:38:54;2.40;;;2.20;;
16890;SDS011;8562;52.246;20.966;2023-09-30T07:41:19;3.77;;;1.47;;
16890;SDS011;8562;52.246;20.966;2023-09-30T07:43:44;2.60;;;1.90;;
16890;SDS011;8562;52.246;20.966;2023-09-30T07:46:10;1.80;;;1.70;;
16890;SDS011;8562;52.246;20.966;2023-09-30T07:48:35;2.77;;;2.43;;
16890;SDS011;8562;52.246;20.966;2023-09-30T07:51:01;2.07;;;1.70;;
16890;SDS011;8562;52.246;20.966;2023-09-30T07:53:27;3.07;;;2.77;;
16890;SDS011;8562;52.246;20.966;2023-09-30T07:55:52;3.27;;;1.57;;
16890;SDS011;8562;52.246;20.966;2023-09-30T07:58:19;3.27;;;2.73;;
16890;SDS011;8562;52.246;20.966;2023-09-30T08:00:45;3.00;;;2.57;;
16890;SDS011;8562;52.246;20.966;2023-09-30T08:03:10;2.37;;;2.17;;
16890;SDS011;8562;52.246;20.966;2023-09-30T08:05:36;3.97;;;2.93;;
16890;SDS011;8562;52.246;20.966;2023-09-30T08:08:02;2.83;;;2.13;;
16890;SDS011;8562;52.246;20.966;2023-09-30T08:10:27;3.77;;;2.23;;
16890;SDS011;8562;52.246;20.966;2023-09-30T08:12:54;4.37;;;2.80;;
16890;SDS011;8562;52.246;20.966;2023-09-30T08:15:22;3.20;;;2.23;;
16890;SDS011;8562;52.246;20.966;2023-09-30T08:17:47;3.23;;;2.23;;
16890;SDS011;8562;52.246;20.966;2023-09-30T08:20:12;2.63;;;2.43;;
16890;SDS011;8562;52.246;20.966;2023-09-30T08:22:39;2.40;;;2.20;;
16890;SDS011;8562;52.246;20.966;2023-09-30T08:25:04;3.17;;;2.80;;
16890;SDS011;8562;52.246;20.966;2023-09-30T08:27:31;3.53;;;2.80;;
16890;SDS011;8562;52.246;20.966;2023-09-30T08:29:57;3.63;;;3.33;;
16890;SDS011;8562;52.246;20.966;2023-09-30T08:32:22;3.77;;;2.27;;
16890;SDS011;8562;52.246;20.966;2023-09-30T08:34:47;4.87;;;3.80;;
16890;SDS011;8562;52.246;20.966;2023-09-30T08:37:12;3.73;;;2.90;;
16890;SDS011;8562;52.246;20.966;2023-09-30T08:39:38;5.47;;;2.80;;
16890;SDS011;8562;52.246;20.966;2023-09-30T08:42:06;2.30;;;2.10;;
16890;SDS011;8562;52.246;20.966;2023-09-30T08:44:33;4.10;;;2.70;;
16890;SDS011;8562;52.246;20.966;2023-09-30T08:46:59;4.20;;;3.67;;
16890;SDS011;8562;52.246;20.966;2023-09-30T08:49:24;2.87;;;2.67;;
16890;SDS011;8562;52.246;20.966;2023-09-30T08:51:51;3.97;;;3.60;;
16890;SDS011;8562;52.246;20.966;2023-09-30T08:54:16;2.53;;;2.03;;
16890;SDS011;8562;52.246;20.966;2023-09-30T08:56:42;4.47;;;3.33;;
16890;SDS011;8562;52.246;20.966;2023-09-30T08:59:09;3.47;;;3.17;;
16890;SDS011;8562;52.246;20.966;2023-09-30T09:01:35;4.93;;;3.10;;
16890;SDS011;8562;52.246;20.966;2023-09-30T09:04:00;5.70;;;3.37;;
16890;SDS011;8562;52.246;20.966;2023-09-30T09:06:25;4.40;;;4.03;;
16890;SDS011;8562;52.246;20.966;2023-09-30T09:08:51;2.40;;;2.20;;
16890;SDS011;8562;52.246;20.966;2023-09-30T09:11:17;5.93;;;2.80;;
16890;SDS011;8562;52.246;20.966;2023-09-30T09:13:47;4.47;;;4.07;;
16890;SDS011;8562;52.246;20.966;2023-09-30T09:16:14;3.43;;;3.00;;
16890;SDS011;8562;52.246;20.966;2023-09-30T09:18:40;4.77;;;3.93;;
16890;SDS011;8562;52.246;20.966;2023-09-30T09:21:12;4.63;;;3.33;;
16890;SDS011;8562;52.246;20.966;2023-09-30T09:23:38;4.30;;;3.10;;
16890;SDS011;8562;52.246;20.966;2023-09-30T09:26:04;7.53;;;3.40;;
16890;SDS011;8562;52.246;20.966;2023-09-30T09:28:34;3.93;;;3.20;;
16890;SDS011;8562;52.246;20.966;2023-09-30T09:31:01;4.27;;;3.47;;
16890;SDS011;8562;52.246;20.966;2023-09-30T09:33:36;3.80;;;2.90;;
16890;SDS011;8562;52.246;20.966;2023-09-30T09:36:04;5.70;;;3.53;;
16890;SDS011;8562;52.246;20.966;2023-09-30T09:38:43;4.60;;;2.83;;
16890;SDS011;8562;52.246;20.966;2023-09-30T09:41:08;5.67;;;2.57;;
16890;SDS011;8562;52.246;20.966;2023-09-30T09:43:33;4.13;;;3.13;;
16890;SDS011;8562;52.246;20.966;2023-09-30T09:46:00;3.30;;;2.53;;
16890;SDS011;8562;52.246;20.966;2023-09-30T09:48:28;4.30;;;3.03;;
16890;SDS011;8562;52.246;20.966;2023-09-30T09:50:54;5.87;;;2.97;;
16890;SDS011;8562;52.246;20.966;2023-09-30T09:53:19;2.60;;;2.40;;
16890;SDS011;8562;52.246;20.966;2023-09-30T09:55:45;4.70;;;3.10;;
16890;SDS011;8562;52.246;20.966;2023-09-30T09:58:11;6.00;;;3.00;;
16890;SDS011;8562;52.246;20.966;2023-09-30T10:00:38;7.53;;;2.83;;
16890;SDS011;8562;52.246;20.966;2023-09-30T10:03:03;5.77;;;2.53;;
16890;SDS011;8562;52.246;20.966;2023-09-30T10:05:29;3.23;;;2.67;;
16890;SDS011;8562;52.246;20.966;2023-09-30T10:08:01;3.47;;;2.83;;
16890;SDS011;8562;52.246;20.966;2023-09-30T10:10:28;3.80;;;3.40;;
16890;SDS011;8562;52.246;20.966;2023-09-30T10:12:53;3.53;;;2.60;;
16890;SDS011;8562;52.246;20.966;2023-09-30T10:20:26;3.67;;;3.30;;
16890;SDS011;8562;52.246;20.966;2023-09-30T10:23:17;2.00;;;1.90;;
16890;SDS011;8562;52.246;20.966;2023-09-30T10:25:37;3.73;;;2.57;;
16890;SDS011;8562;52.246;20.966;2023-09-30T10:28:31;3.87;;;2.30;;
16890;SDS011;8562;52.246;20.966;2023-09-30T10:31:08;4.30;;;2.27;;
16890;SDS011;8562;52.246;20.966;2023-09-30T10:33:33;2.40;;;2.20;;
16890;SDS011;8562;52.246;20.966;2023-09-30T10:35:59;3.23;;;2.03;;
16890;SDS011;8562;52.246;20.966;2023-09-30T10:41:00;1.97;;;0.90;;
16890;SDS011;8562;52.246;20.966;2023-09-30T10:43:37;1.37;;;1.27;;
16890;SDS011;8562;52.246;20.966;2023-09-30T10:46:03;1.30;;;1.20;;
16890;SDS011;8562;52.246;20.966;2023-09-30T10:48:32;1.43;;;1.23;;
16890;SDS011;8562;52.246;20.966;2023-09-30T10:51:16;0.73;;;0.67;;
16890;SDS011;8562;52.246;20.966;2023-09-30T10:53:45;1.30;;;1.10;;
16890;SDS011;8562;52.246;20.966;2023-09-30T10:56:10;0.60;;;0.60;;
16890;SDS011;8562;52.246;20.966;2023-09-30T11:01:10;0.50;;;0.50;;
16890;SDS011;8562;52.246;20.966;2023-09-30T11:03:36;1.03;;;0.67;;
16890;SDS011;8562;52.246;20.966;2023-09-30T11:06:02;1.23;;;1.13;;
16890;SDS011;8562;52.246;20.966;2023-09-30T11:08:28;0.90;;;0.60;;
16890;SDS011;8562;52.246;20.966;2023-09-30T11:10:54;1.93;;;0.90;;
16890;SDS011;8562;52.246;20.966;2023-09-30T11:13:20;1.03;;;0.50;;
16890;SDS011;8562;52.246;20.966;2023-09-30T11:15:45;0.87;;;0.50;;
16890;SDS011;8562;52.246;20.966;2023-09-30T11:18:14;0.83;;;0.70;;
16890;SDS011;8562;52.246;20.966;2023-09-30T11:20:40;1.07;;;0.60;;
16890;SDS011;8562;52.246;20.966;2023-09-30T11:23:06;1.07;;;0.37;;
16890;SDS011;8562;52.246;20.966;2023-09-30T11:25:34;0.83;;;0.53;;
16890;SDS011;8562;52.246;20.966;2023-09-30T11:28:12;0.27;;;0.27;;
16890;SDS011;8562;52.246;20.966;2023-09-30T11:30:52;0.40;;;0.40;;
16890;SDS011;8562;52.246;20.966;2023-09-30T11:33:17;2.67;;;2.20;;
16890;SDS011;8562;52.246;20.966;2023-09-30T11:35:55;0.83;;;0.20;;
16890;SDS011;8562;52.246;20.966;2023-09-30T11:38:20;1.17;;;0.63;;
16890;SDS011;8562;52.246;20.966;2023-09-30T11:41:01;1.47;;;0.77;;
16890;SDS011;8562;52.246;20.966;2023-09-30T11:43:29;0.73;;;0.73;;
16890;SDS011;8562;52.246;20.966;2023-09-30T11:46:07;0.93;;;0.63;;
16890;SDS011;8562;52.246;20.966;2023-09-30T11:48:37;1.20;;;0.73;;
16890;SDS011;8562;52.246;20.966;2023-09-30T11:51:02;2.00;;;0.30;;
16890;SDS011;8562;52.246;20.966;2023-09-30T11:53:32;0.53;;;0.37;;
16890;SDS011;8562;52.246;20.966;2023-09-30T11:55:57;0.50;;;0.50;;
16890;SDS011;8562;52.246;20.966;2023-09-30T11:58:25;1.03;;;0.93;;
16890;SDS011;8562;52.246;20.966;2023-09-30T12:00:52;1.10;;;0.77;;
16890;SDS011;8562;52.246;20.966;2023-09-30T12:03:18;0.80;;;0.60;;
16890;SDS011;8562;52.246;20.966;2023-09-30T12:05:43;1.50;;;0.43;;
16890;SDS011;8562;52.246;20.966;2023-09-30T12:08:11;1.00;;;0.70;;
16890;SDS011;8562;52.246;20.966;2023-09-30T12:10:36;0.43;;;0.43;;
16890;SDS011;8562;52.246;20.966;2023-09-30T12:13:01;0.80;;;0.37;;
16890;SDS011;8562;52.246;20.966;2023-09-30T12:15:26;0.40;;;0.40;;
16890;SDS011;8562;52.246;20.966;2023-09-30T12:17:52;0.43;;;0.43;;
16890;SDS011;8562;52.246;20.966;2023-09-30T12:20:17;1.93;;;0.67;;
16890;SDS011;8562;52.246;20.966;2023-09-30T12:22:43;0.93;;;0.90;;
16890;SDS011;8562;52.246;20.966;2023-09-30T12:25:08;2.20;;;1.67;;
16890;SDS011;8562;52.246;20.966;2023-09-30T12:27:34;0.80;;;0.80;;
16890;SDS011;8562;52.246;20.966;2023-09-30T12:29:59;0.50;;;0.50;;
16890;SDS011;8562;52.246;20.966;2023-09-30T12:32:25;0.30;;;0.30;;
16890;SDS011;8562;52.246;20.966;2023-09-30T12:34:52;0.50;;;0.50;;
16890;SDS011;8562;52.246;20.966;2023-09-30T12:37:17;0.57;;;0.50;;
16890;SDS011;8562;52.246;20.966;2023-09-30T12:39:43;2.53;;;0.97;;
16890;SDS011;8562;52.246;20.966;2023-09-30T12:42:10;0.87;;;0.33;;
16890;SDS011;8562;52.246;20.966;2023-09-30T12:44:37;0.80;;;0.47;;
16890;SDS011;8562;52.246;20.966;2023-09-30T12:47:03;1.27;;;0.70;;
16890;SDS011;8562;52.246;20.966;2023-09-30T12:49:30;0.20;;;0.20;;
16890;SDS011;8562;52.246;20.966;2023-09-30T12:51:55;0.47;;;0.47;;
16890;SDS011;8562;52.246;20.966;2023-09-30T12:54:22;1.47;;;0.53;;
16890;SDS011;8562;52.246;20.966;2023-09-30T12:56:48;0.73;;;0.63;;
16890;SDS011;8562;52.246;20.966;2023-09-30T12:59:13;1.03;;;0.47;;
16890;SDS011;8562;52.246;20.966;2023-09-30T13:01:38;1.27;;;0.77;;
16890;SDS011;8562;52.246;20.966;2023-09-30T13:04:04;0.77;;;0.53;;
16890;SDS011;8562;52.246;20.966;2023-09-30T13:06:33;1.17;;;0.43;;
16890;SDS011;8562;52.246;20.966;2023-09-30T13:09:00;0.73;;;0.73;;
16890;SDS011;8562;52.246;20.966;2023-09-30T13:11:25;1.63;;;0.40;;
16890;SDS011;8562;52.246;20.966;2023-09-30T13:13:52;0.60;;;0.60;;
16890;SDS011;8562;52.246;20.966;2023-09-30T13:16:17;0.63;;;0.33;;
16890;SDS011;8562;52.246;20.966;2023-09-30T13:18:42;0.70;;;0.70;;
16890;SDS011;8562;52.246;20.966;2023-09-30T13:21:08;0.20;;;0.20;;
16890;SDS011;8562;52.246;20.966;2023-09-30T13:23:34;0.40;;;0.30;;
16890;SDS011;8562;52.246;20.966;2023-09-30T13:25:59;1.10;;;0.60;;
16890;SDS011;8562;52.246;20.966;2023-09-30T13:28:25;0.60;;;0.57;;
16890;SDS011;8562;52.246;20.966;2023-09-30T13:30:52;1.80;;;0.40;;
16890;SDS011;8562;52.246;20.966;2023-09-30T13:33:18;0.63;;;0.47;;
16890;SDS011;8562;52.246;20.966;2023-09-30T13:35:45;1.30;;;0.33;;
16890;SDS011;8562;52.246;20.966;2023-09-30T13:38:10;3.87;;;0.33;;
16890;SDS011;8562;52.246;20.966;2023-09-30T13:40:35;0.67;;;0.30;;
16890;SDS011;8562;52.246;20.966;2023-09-30T13:43:03;2.17;;;0.70;;
16890;SDS011;8562;52.246;20.966;2023-09-30T13:45:28;0.33;;;0.17;;
16890;SDS011;8562;52.246;20.966;2023-09-30T13:47:54;1.53;;;0.37;;
16890;SDS011;8562;52.246;20.966;2023-09-30T13:50:19;1.40;;;0.50;;
16890;SDS011;8562;52.246;20.966;2023-09-30T13:52:44;0.80;;;0.80;;
16890;SDS011;8562;52.246;20.966;2023-09-30T13:55:10;1.40;;;0.67;;
16890;SDS011;8562;52.246;20.966;2023-09-30T13:57:36;0.83;;;0.53;;
16890;SDS011;8562;52.246;20.966;2023-09-30T14:00:02;0.37;;;0.37;;
16890;SDS011;8562;52.246;20.966;2023-09-30T14:02:29;0.80;;;0.60;;
16890;SDS011;8562;52.246;20.966;2023-09-30T14:04:55;0.43;;;0.37;;
16890;SDS011;8562;52.246;20.966;2023-09-30T14:07:20;1.40;;;0.70;;
16890;SDS011;8562;52.246;20.966;2023-09-30T14:09:46;0.63;;;0.20;;
16890;SDS011;8562;52.246;20.966;2023-09-30T14:12:11;0.50;;;0.33;;
16890;SDS011;8562;52.246;20.966;2023-09-30T14:14:37;0.30;;;0.30;;
16890;SDS011;8562;52.246;20.966;2023-09-30T14:17:02;0.47;;;0.33;;
16890;SDS011;8562;52.246;20.966;2023-09-30T14:19:36;0.27;;;0.27;;
16890;SDS011;8562;52.246;20.966;2023-09-30T14:22:01;0.43;;;0.27;;
16890;SDS011;8562;52.246;20.966;2023-09-30T14:24:26;1.23;;;0.40;;
16890;SDS011;8562;52.246;20.966;2023-09-30T14:26:52;0.83;;;0.73;;
16890;SDS011;8562;52.246;20.966;2023-09-30T14:29:17;1.10;;;0.30;;
16890;SDS011;8562;52.246;20.966;2023-09-30T14:31:42;0.37;;;0.17;;
16890;SDS011;8562;52.246;20.966;2023-09-30T14:34:08;0.10;;;0.10;;
16890;SDS011;8562;52.246;20.966;2023-09-30T14:36:33;0.87;;;0.80;;
16890;SDS011;8562;52.246;20.966;2023-09-30T14:38:58;1.03;;;0.60;;
16890;SDS011;8562;52.246;20.966;2023-09-30T14:41:24;0.83;;;0.70;;
16890;SDS011;8562;52.246;20.966;2023-09-30T14:43:49;0.40;;;0.30;;
16890;SDS011;8562;52.246;20.966;2023-09-30T14:46:15;4.07;;;0.87;;
16890;SDS011;8562;52.246;20.966;2023-09-30T14:48:40;0.53;;;0.50;;
16890;SDS011;8562;52.246;20.966;2023-09-30T14:51:07;0.17;;;0.17;;
16890;SDS011;8562;52.246;20.966;2023-09-30T14:53:33;1.53;;;0.50;;